createdAt,value
2019-05-10T00:00:23.530Z,21.30
2019-05-10T00:05:45.319Z,21.19
2019-05-10T00:10:50.447Z,21.01
2019-05-10T00:15:54.040Z,20.89
2019-05-10T00:20:57.652Z,21.01
2019-05-10T00:26:01.206Z,20.93
2019-05-10T00:31:04.902Z,20.81
2019-05-10T00:36:08.454Z,20.76
2019-05-10T00:41:12.055Z,20.69
2019-05-10T00:46:15.614Z,20.67
2019-05-10T00:51:19.227Z,20.63
2019-05-10T00:56:22.764Z,20.62
2019-05-10T01:01:26.358Z,20.54
2019-05-10T01:06:29.914Z,20.54
2019-05-10T01:11:33.511Z,20.51
2019-05-10T01:16:37.061Z,20.42
2019-05-10T01:21:40.658Z,20.41
2019-05-10T01:26:44.754Z,20.40
2019-05-10T01:31:48.318Z,20.70
2019-05-10T01:36:51.902Z,21.65
2019-05-10T01:41:55.488Z,23.27
2019-05-10T01:46:59.045Z,23.14
2019-05-10T01:52:02.624Z,22.98
2019-05-10T01:57:06.219Z,22.47
2019-05-10T02:02:09.847Z,21.71
2019-05-10T02:07:13.415Z,21.71
2019-05-10T02:12:16.983Z,21.58
2019-05-10T02:17:20.552Z,21.37
2019-05-10T02:22:24.224Z,21.24
2019-05-10T02:27:27.809Z,21.11
2019-05-10T02:32:31.395Z,21.04
2019-05-10T02:37:35.142Z,21.00
2019-05-10T02:42:38.728Z,20.93
2019-05-10T02:47:42.301Z,20.81
2019-05-10T02:52:45.876Z,20.69
2019-05-10T02:57:49.475Z,20.50
2019-05-10T03:02:53.077Z,20.52
2019-05-10T03:07:57.037Z,20.52
2019-05-10T03:13:01.799Z,20.43
2019-05-10T03:18:06.039Z,20.37
2019-05-10T03:23:10.578Z,20.27
2019-05-10T03:28:14.146Z,20.24
2019-05-10T03:33:17.726Z,20.19
2019-05-10T03:38:21.344Z,20.17
2019-05-10T03:43:24.911Z,20.12
2019-05-10T03:48:28.487Z,20.18
2019-05-10T03:53:32.038Z,20.15
2019-05-10T03:58:35.615Z,20.25
2019-05-10T04:03:39.665Z,20.31
2019-05-10T04:08:43.227Z,20.39
2019-05-10T04:13:46.824Z,20.73
2019-05-10T04:18:50.379Z,21.11
2019-05-10T04:23:53.996Z,22.81
2019-05-10T04:28:57.530Z,23.50
2019-05-10T04:34:01.118Z,23.99
2019-05-10T04:39:06.556Z,23.93
2019-05-10T04:44:10.125Z,23.79
2019-05-10T04:49:13.734Z,23.59
2019-05-10T04:54:17.274Z,23.34
2019-05-10T04:59:20.835Z,23.13
2019-05-10T05:04:24.429Z,22.91
2019-05-10T05:09:27.983Z,22.71
2019-05-10T05:14:31.544Z,22.61
2019-05-10T05:19:35.154Z,22.49
2019-05-10T05:24:38.701Z,22.38
2019-05-10T05:29:42.310Z,22.28
2019-05-10T05:34:45.871Z,22.28
2019-05-10T05:39:49.452Z,22.49
2019-05-10T05:44:53.003Z,22.74
2019-05-10T05:49:56.603Z,22.97
2019-05-10T05:55:00.146Z,23.06
2019-05-10T06:00:06.668Z,23.25
2019-05-10T06:05:10.209Z,23.30
2019-05-10T06:10:16.921Z,23.50
2019-05-10T06:15:23.123Z,23.74
2019-05-10T06:20:24.378Z,23.91
2019-05-10T06:25:39.567Z,24.06
2019-05-10T06:30:33.246Z,24.16
2019-05-10T06:35:36.818Z,24.05
2019-05-10T06:40:46.890Z,23.80
2019-05-10T06:45:46.701Z,23.67
2019-05-10T06:50:51.001Z,23.59
2019-05-10T06:55:54.563Z,23.50
2019-05-10T07:00:58.151Z,23.43
2019-05-10T07:06:01.703Z,23.41
2019-05-10T07:11:05.669Z,23.73
2019-05-10T07:16:09.220Z,24.21
2019-05-10T07:21:12.786Z,25.22
2019-05-10T07:26:22.902Z,26.59
2019-05-10T07:31:23.604Z,28.12
2019-05-10T07:36:30.539Z,28.20
2019-05-10T07:41:32.278Z,27.65
2019-05-10T07:46:40.237Z,27.04
2019-05-10T07:51:41.650Z,26.53
2019-05-10T07:56:47.803Z,25.97
2019-05-10T08:01:51.441Z,25.52
2019-05-10T08:06:54.982Z,25.43
2019-05-10T08:12:03.235Z,25.06
2019-05-10T08:17:06.266Z,24.88
2019-05-10T08:22:10.285Z,24.75
2019-05-10T08:27:14.757Z,24.56
2019-05-10T08:32:19.333Z,24.38
2019-05-10T08:37:33.094Z,24.11
2019-05-10T08:42:43.840Z,24.06
2019-05-10T08:47:34.764Z,23.96
2019-05-10T08:52:38.320Z,23.81
2019-05-10T08:57:44.351Z,23.77
2019-05-10T09:02:47.282Z,23.72
2019-05-10T09:07:52.067Z,23.65
2019-05-10T09:12:58.067Z,23.57
2019-05-10T09:18:04.310Z,23.50
2019-05-10T09:23:08.554Z,23.42
2019-05-10T09:28:16.808Z,23.31
2019-05-10T09:33:17.002Z,23.17
2019-05-10T09:38:22.134Z,23.01
2019-05-10T09:43:25.830Z,22.90
2019-05-10T09:53:32.068Z,22.78
2019-05-10T09:58:38.501Z,22.74
2019-05-10T10:03:43.638Z,22.69
2019-05-10T10:08:49.291Z,22.66
2019-05-10T10:13:59.296Z,22.59
2019-05-10T10:18:57.401Z,22.54
2019-05-10T10:24:12.558Z,22.52
2019-05-10T10:29:07.377Z,22.48
2019-05-10T10:34:11.262Z,22.43
2019-05-10T10:39:16.911Z,22.42
2019-05-10T10:44:20.159Z,22.72
2019-05-10T10:49:28.063Z,23.17
2019-05-10T10:54:36.238Z,24.03
2019-05-10T10:59:34.329Z,25.96
2019-05-10T11:04:40.389Z,27.81
2019-05-10T11:09:43.201Z,27.81
2019-05-10T11:14:46.794Z,27.33
2019-05-10T11:19:50.342Z,26.72
2019-05-10T11:25:00.710Z,26.08
2019-05-10T11:30:00.878Z,25.69
2019-05-10T11:35:05.972Z,25.35
2019-05-10T11:40:11.329Z,25.11
2019-05-10T11:45:14.995Z,24.96
2019-05-10T11:55:23.904Z,24.67
2019-05-10T11:59:05.164Z,24.83
2019-05-10T12:05:32.855Z,24.34
2019-05-10T12:10:43.068Z,24.21
2019-05-10T12:15:43.175Z,24.05
2019-05-10T12:21:00.374Z,23.94
2019-05-10T12:26:03.776Z,24.48
2019-05-10T12:26:49.190Z,23.85
2019-05-10T12:30:57.968Z,23.81
2019-05-10T12:36:02.415Z,23.81
2019-05-10T12:41:06.299Z,23.72
2019-05-10T12:46:10.552Z,23.63
2019-05-10T12:51:16.220Z,23.53
2019-05-10T12:56:19.698Z,23.45
2019-05-10T13:01:25.785Z,23.38
2019-05-10T13:06:28.709Z,23.14
2019-05-10T13:11:32.617Z,23.08
2019-05-10T13:16:36.282Z,23.02
2019-05-10T13:21:39.855Z,22.98
2019-05-10T13:26:43.414Z,23.03
2019-05-10T13:31:47.037Z,22.96
2019-05-10T13:36:50.683Z,23.01
2019-05-10T13:41:57.303Z,22.91
2019-05-10T13:46:59.623Z,23.08
2019-05-10T13:52:03.172Z,23.03
2019-05-10T13:57:06.821Z,23.05
2019-05-10T14:02:10.352Z,23.04
2019-05-10T14:07:13.924Z,22.99
2019-05-10T14:12:23.244Z,22.87
2019-05-10T14:22:25.420Z,22.80
2019-05-10T14:27:29.955Z,22.78
2019-05-10T14:32:34.298Z,22.78
2019-05-10T14:37:37.913Z,22.74
2019-05-10T14:42:41.520Z,22.73
2019-05-10T14:47:47.784Z,22.71
2019-05-10T14:52:50.505Z,22.67
2019-05-10T14:57:54.058Z,22.77
2019-05-10T15:03:02.001Z,22.80
2019-05-10T15:08:02.931Z,22.80
2019-05-10T15:13:06.500Z,22.69
2019-05-10T15:18:10.083Z,22.72
2019-05-10T15:23:13.769Z,22.74
2019-05-10T15:28:17.373Z,22.72
2019-05-10T15:33:21.132Z,22.67
2019-05-10T15:38:24.719Z,22.67
2019-05-10T15:43:28.310Z,22.64
2019-05-10T15:48:36.611Z,22.66
2019-05-10T15:53:37.567Z,22.70
2019-05-10T15:58:43.016Z,22.71
2019-05-10T16:03:47.613Z,22.64
2019-05-10T16:08:51.513Z,22.61
2019-05-10T16:13:59.949Z,22.58
2019-05-10T16:19:00.460Z,22.56
2019-05-10T16:24:05.015Z,22.54
2019-05-10T16:29:08.658Z,22.54
2019-05-10T16:34:12.219Z,22.49
2019-05-10T16:39:15.805Z,22.47
2019-05-10T16:44:21.022Z,22.48
2019-05-10T16:49:25.968Z,22.47
2019-05-10T16:54:30.470Z,22.46
2019-05-10T16:59:35.746Z,22.46
2019-05-10T17:04:39.927Z,22.38
2019-05-10T17:09:43.895Z,22.39
2019-05-10T17:14:50.623Z,22.35
2019-05-10T17:19:54.537Z,22.35
2019-05-10T17:25:03.486Z,22.33
2019-05-10T17:30:06.171Z,22.29
2019-05-10T17:35:10.416Z,22.28
2019-05-10T17:40:14.280Z,22.27
2019-05-10T17:45:18.985Z,22.24
2019-05-10T17:50:23.507Z,22.21
2019-05-10T17:55:27.733Z,22.20
2019-05-10T18:00:35.544Z,22.18
2019-05-10T18:05:44.544Z,22.17
2019-05-10T18:10:44.419Z,22.15
2019-05-10T18:15:48.010Z,22.09
2019-05-10T18:20:51.751Z,21.99
2019-05-10T18:25:58.640Z,21.89
2019-05-10T18:31:00.679Z,21.82
2019-05-10T18:36:04.805Z,21.70
2019-05-10T18:41:09.998Z,21.61
2019-05-10T18:46:13.721Z,21.49
2019-05-10T18:51:17.868Z,21.41
2019-05-10T18:56:25.308Z,21.26
2019-05-10T19:01:32.871Z,21.26
2019-05-10T19:06:33.226Z,21.23
2019-05-10T19:11:39.158Z,21.20
2019-05-10T19:16:42.124Z,21.10
2019-05-10T19:21:45.690Z,21.07
2019-05-10T19:26:49.258Z,21.02
2019-05-10T19:31:52.859Z,21.05
2019-05-10T19:36:56.738Z,20.94
2019-05-10T19:42:04.019Z,20.85
2019-05-10T19:47:05.765Z,20.79
2019-05-10T19:52:09.431Z,20.79
2019-05-10T19:57:16.379Z,20.70
2019-05-10T20:02:18.447Z,20.63
2019-05-10T20:07:21.987Z,20.63
2019-05-10T20:12:25.564Z,20.56
2019-05-10T20:17:29.302Z,20.47
2019-05-10T20:22:35.999Z,20.43
2019-05-10T20:27:38.581Z,20.41
2019-05-10T20:32:42.383Z,20.44
2019-05-10T20:38:00.641Z,20.43
2019-05-10T20:42:51.392Z,20.45
2019-05-10T20:47:54.979Z,20.52
2019-05-10T20:52:58.586Z,20.56
2019-05-10T20:58:02.170Z,20.60
2019-05-10T21:03:05.852Z,20.64
2019-05-10T21:08:16.980Z,20.62
2019-05-10T21:13:14.764Z,20.63
2019-05-10T21:18:18.346Z,20.64
2019-05-10T21:23:21.959Z,20.62
2019-05-10T21:28:25.528Z,20.60
2019-05-10T21:33:29.108Z,20.59
2019-05-10T21:38:33.674Z,20.54
2019-05-10T21:43:37.272Z,20.49
2019-05-10T21:48:40.892Z,20.49
2019-05-10T21:53:44.450Z,20.47
2019-05-10T21:58:48.037Z,20.44
2019-05-10T22:03:51.652Z,20.40
2019-05-10T22:08:55.481Z,20.40
2019-05-10T22:13:59.087Z,20.38
2019-05-10T22:19:03.204Z,20.35
2019-05-10T22:24:06.885Z,20.32
2019-05-10T22:29:10.453Z,20.30
2019-05-10T22:34:14.036Z,20.28
2019-05-10T22:39:17.601Z,20.27
2019-05-10T22:44:21.529Z,20.26
2019-05-10T22:49:25.102Z,20.37
2019-05-10T22:54:28.771Z,20.92
2019-05-10T22:59:32.337Z,23.53
2019-05-10T23:04:35.951Z,26.06
2019-05-10T23:09:39.657Z,26.51
2019-05-10T23:14:43.355Z,26.62
2019-05-10T23:19:47.032Z,26.41
2019-05-10T23:24:50.602Z,25.96
2019-05-10T23:29:54.177Z,25.61
2019-05-10T23:34:57.783Z,24.96
2019-05-10T23:40:01.344Z,24.81
2019-05-10T23:45:06.333Z,24.36
2019-05-10T23:50:09.942Z,24.04
2019-05-10T23:55:13.535Z,23.68
